EDDP/LEJ METAR and TAF weather

Enter ICAO airport designator
Station Type Date Time Source
EDDP METAR 2024/02/26 17:50 UTC NOAA

EDDP 261750Z AUTO 03007KT CAVOK 08/04 Q1007 NOSIG


Station Type Date Time Source
EDDP Decoded METAR 2024/02/26 17:50 UTC NOAA

Leipzig-Schkeuditz, Germany (EDDP) 51-25N 012-14E 149M
Feb 26, 2024 - 12:50 PM EST / 2024.02.26 1750 UTC
Wind: from the NNE (030 degrees) at 8 MPH (7 KT):0
Visibility: greater than 7 mile(s):0
Temperature: 46 F (8 C)
Dew Point: 39 F (4 C)
Relative Humidity: 75%
Pressure (altimeter): 29.74 in. Hg (1007 hPa)
ob: EDDP 261750Z AUTO 03007KT CAVOK 08/04 Q1007 NOSIG
cycle: 18

Station Type Date Time Source
EDDP TAF 2024/02/26 18:27 UTC NOAA